Airfield :
LOGIN :

Register | Disclaimer

   EN    FR    IT 

 










Legend :    VFR   Marginal VFR   IFR   Intensive IFR   Very Intensive IFR
Visi :
Ceiling :
>= 8 km
>= 3000ft
5 to 8 km
1000 to 3000 ft
1500m to 5 km
500 to 1000 ft
800 to 1500m
200 to 500 ft
< 800m
< 200 ft
Symbols :   Thunderstorms  Fog  Heavy snow  Heavy precipitations  Wind > 20 kt
SIGMETs :     Misc.  Thunderstorms  Icing  Turbulence  Mountain Waves  Volcanic Ashes







- Airport Elevation : 15 ft
- IATA code : FCO


LIRF - Roma Leonardo da Vinci Fiumicino

CURRENT METAR :
  • 121550Z 06005KT CAVOK 09/02 Q1017 NOSIG

EXPIRED METARs :
  • 121520Z 08006KT CAVOK 09/01 Q1017 NOSIG
  • 121450Z 07004KT CAVOK 09/02 Q1017 NOSIG
  • 121420Z 05004KT CAVOK 10/02 Q1018 NOSIG
  • 121350Z 06005KT CAVOK 10/02 Q1018 NOSIG
  • 121320Z 06005KT CAVOK 10/01 Q1018 NOSIG
  • 121250Z 04004KT CAVOK 09/01 Q1018 NOSIG

TAF TAF LIRF
Valid from the 12 at 12:00 until the 13 at 18:00 UTC


121100Z 1212/1318 10008KT 9999 SCT030
TEMPO 1221/1309 RA
No reported NOTAMs for that airfield.



MET'MAP, your aeronautical weather chart ! - Copyright ORBIFLY December 2007 - Disclaimer

ORBIFLY MET'MAP TEAM :

Programming & Development : Alexandra Zaïnal
Concept & Development : Baudouin d'Aumeries
Co-Development & Prog : Marc-Olivier Méhu
Technical & hardware support : Manuel Goepfert

Contact : metmap@orbifly.com




SOURCES & CREDITS :

   NOAA